Time;durP1;ratioP1;P1;durP2;ratioP2;P2;SDS_P1;SDS_P2;PMS_P1;PMS_P2;Temp;Humidity;BMP_temperature;BMP_pressure;BME280_temperature;BME280_humidity;BME280_pressure;Samples;Min_cycle;Max_cycle;Signal;HPM_P1;HPM_P2
2021/09/30 00:01:38;;;;;;;3.85;1.15;;;10.60;97.60;;;;;;5034243;28;20041;-64
2021/09/30 00:04:04;;;;;;;3.78;1.30;;;10.50;97.80;;;;;;5030909;28;20115;-64
2021/09/30 00:06:30;;;;;;;2.70;1.70;;;10.50;97.90;;;;;;5035452;28;20017;-64
2021/09/30 00:08:56;;;;;;;5.10;1.60;;;10.50;97.90;;;;;;5036655;28;20504;-64
2021/09/30 00:11:27;;;;;;;3.45;1.92;;;10.50;98.10;;;;;;5036423;28;20104;-64
2021/09/30 00:13:58;;;;;;;5.13;1.90;;;10.50;98.10;;;;;;5040961;28;20036;-64
2021/09/30 00:32:54;;;;;;;5.50;2.10;;;10.20;98.60;;;;;;5035329;28;20033;-64
2021/09/30 00:41:24;;;;;;;2.97;1.92;;;10.10;98.90;;;;;;5039474;28;20031;-63
2021/09/30 00:46:22;;;;;;;5.40;2.10;;;10.00;99.10;;;;;;5053434;28;20048;-64
2021/09/30 00:49:14;;;;;;;5.80;1.85;;;10.00;99.10;;;;;;5049265;28;20460;-63
2021/09/30 00:52:31;;;;;;;5.07;1.65;;;10.00;99.20;;;;;;5034518;28;20025;-64
2021/09/30 01:20:38;;;;;;;6.35;2.30;;;9.90;99.50;;;;;;5039520;28;20068;-64
2021/09/30 02:28:18;;;;;;;7.32;2.30;;;9.40;99.80;;;;;;5036964;28;20033;-63
2021/09/30 02:58:31;;;;;;;5.75;1.83;;;9.30;99.80;;;;;;5038571;28;20043;-63
2021/09/30 03:01:04;;;;;;;7.03;2.60;;;9.30;99.70;;;;;;5035244;28;20107;-63
2021/09/30 03:03:33;;;;;;;4.72;2.17;;;9.30;99.70;;;;;;5032503;28;20026;-63
2021/09/30 03:05:59;;;;;;;3.33;1.75;;;9.30;99.70;;;;;;5031820;28;20370;-63
2021/09/30 03:08:26;;;;;;;5.35;2.63;;;9.30;99.70;;;;;;5031226;28;20515;-63
2021/09/30 03:10:54;;;;;;;4.28;2.15;;;9.30;99.70;;;;;;5039023;28;20384;-63
2021/09/30 03:13:25;;;;;;;5.47;2.20;;;9.30;99.70;;;;;;5036680;28;20013;-63
2021/09/30 03:16:00;;;;;;;8.32;2.35;;;9.30;99.60;;;;;;5033661;28;20055;-63
2021/09/30 03:18:30;;;;;;;4.75;2.00;;;9.30;99.70;;;;;;5035987;28;20086;-63
2021/09/30 03:23:32;;;;;;;5.65;2.35;;;9.30;99.70;;;;;;5034061;28;20017;-63
2021/09/30 03:25:58;;;;;;;7.13;2.22;;;9.30;99.60;;;;;;5036538;28;20389;-63
2021/09/30 03:28:25;;;;;;;4.72;1.75;;;9.30;99.60;;;;;;5036082;28;20018;-63
2021/09/30 03:30:54;;;;;;;6.45;2.80;;;9.30;99.60;;;;;;5036402;28;20026;-63
2021/09/30 03:33:20;;;;;;;6.03;1.85;;;9.40;99.60;;;;;;5035335;28;20013;-63
2021/09/30 03:35:46;;;;;;;7.30;1.90;;;9.30;99.50;;;;;;5038484;28;20075;-63
2021/09/30 03:38:12;;;;;;;5.28;2.38;;;9.30;99.50;;;;;;5034249;28;20025;-63
2021/09/30 03:40:39;;;;;;;6.05;1.90;;;9.30;99.50;;;;;;5038740;28;20032;-63
2021/09/30 03:43:06;;;;;;;5.18;1.90;;;9.30;99.50;;;;;;5038115;28;20050;-63
2021/09/30 03:45:32;;;;;;;5.18;2.00;;;9.30;99.50;;;;;;5038287;28;20051;-63
2021/09/30 03:47:58;;;;;;;5.25;2.22;;;9.30;99.50;;;;;;5040228;28;20100;-63
2021/09/30 03:50:26;;;;;;;9.75;2.53;;;9.30;99.50;;;;;;5036139;28;20105;-63
2021/09/30 04:01:04;;;;;;;8.88;2.20;;;9.20;99.60;;;;;;5038611;28;20090;-63
2021/09/30 04:03:30;;;;;;;7.43;2.58;;;9.20;99.60;;;;;;5038489;28;20032;-63
2021/09/30 04:05:55;;;;;;;8.93;2.38;;;9.20;99.70;;;;;;5037402;28;20025;-63
2021/09/30 04:08:21;;;;;;;6.05;2.03;;;9.20;99.60;;;;;;5037099;28;20041;-63
2021/09/30 04:10:47;;;;;;;6.32;2.22;;;9.20;99.60;;;;;;5039340;28;20075;-64
2021/09/30 04:13:12;;;;;;;5.10;2.70;;;9.20;99.60;;;;;;5041396;28;20468;-63
2021/09/30 04:15:38;;;;;;;9.90;2.70;;;9.20;99.60;;;;;;5040519;28;20025;-63
2021/09/30 04:18:03;;;;;;;7.85;3.00;;;9.20;99.60;;;;;;5034120;28;20040;-63
2021/09/30 04:20:29;;;;;;;7.80;2.35;;;9.10;99.60;;;;;;5035593;28;20065;-62
2021/09/30 04:22:54;;;;;;;6.60;2.30;;;9.10;99.60;;;;;;5034343;28;20040;-63
2021/09/30 04:25:20;;;;;;;6.22;2.20;;;9.10;99.60;;;;;;5038545;28;20361;-63
2021/09/30 04:27:45;;;;;;;7.20;2.58;;;9.10;99.70;;;;;;5040065;28;20026;-63
2021/09/30 04:30:12;;;;;;;6.75;2.55;;;9.10;99.60;;;;;;5044235;28;20039;-63
2021/09/30 04:32:38;;;;;;;9.48;2.83;;;9.10;99.60;;;;;;5038256;28;20478;-63
2021/09/30 04:35:04;;;;;;;5.35;2.15;;;9.10;99.70;;;;;;5034987;28;20064;-63
2021/09/30 04:37:30;;;;;;;7.75;2.28;;;9.10;99.70;;;;;;5038386;28;20481;-64
2021/09/30 04:39:55;;;;;;;8.25;2.83;;;9.00;99.70;;;;;;5036826;28;20083;-63
2021/09/30 04:42:21;;;;;;;8.82;2.88;;;9.00;99.70;;;;;;5040278;28;20052;-63
2021/09/30 04:44:48;;;;;;;8.15;2.90;;;9.00;99.60;;;;;;5039482;28;20481;-63
2021/09/30 04:47:13;;;;;;;5.50;2.67;;;9.00;99.70;;;;;;5035572;28;20013;-63
2021/09/30 04:49:39;;;;;;;5.30;2.47;;;9.00;99.70;;;;;;5040248;28;20396;-63
2021/09/30 04:52:04;;;;;;;9.45;3.05;;;9.00;99.60;;;;;;5039783;28;20474;-63
2021/09/30 04:54:30;;;;;;;7.60;3.03;;;9.00;99.60;;;;;;5035006;28;20032;-63
2021/09/30 04:56:55;;;;;;;8.10;2.28;;;9.00;99.60;;;;;;5039127;28;20033;-63
2021/09/30 04:59:21;;;;;;;9.98;2.65;;;9.00;99.60;;;;;;5037817;28;20025;-63
2021/09/30 05:01:46;;;;;;;6.38;2.55;;;8.90;99.50;;;;;;5035816;28;20469;-63
2021/09/30 05:04:12;;;;;;;7.05;2.35;;;8.90;99.50;;;;;;5039083;28;20087;-63
2021/09/30 05:06:37;;;;;;;6.30;2.65;;;8.90;99.50;;;;;;5034043;28;20025;-64
2021/09/30 05:09:03;;;;;;;4.93;2.15;;;8.90;99.50;;;;;;5035812;28;20079;-64
2021/09/30 05:11:36;;;;;;;5.15;1.98;;;8.80;99.50;;;;;;5040853;28;20388;-64
2021/09/30 05:14:03;;;;;;;5.70;2.35;;;8.90;99.60;;;;;;5038813;28;20041;-63
2021/09/30 05:16:29;;;;;;;5.18;2.38;;;8.90;99.50;;;;;;5035192;28;20026;-63
2021/09/30 05:18:56;;;;;;;6.03;2.50;;;8.80;99.50;;;;;;5033140;28;20444;-63
2021/09/30 05:21:23;;;;;;;4.60;2.08;;;8.90;99.50;;;;;;5045870;28;20048;-64
2021/09/30 05:23:49;;;;;;;6.65;2.40;;;8.80;99.50;;;;;;5035261;28;20112;-64
2021/09/30 05:26:15;;;;;;;6.55;2.42;;;8.80;99.40;;;;;;5045497;28;20096;-64
2021/09/30 05:28:41;;;;;;;6.22;2.28;;;8.80;99.40;;;;;;5032025;28;20408;-63
2021/09/30 05:31:06;;;;;;;6.07;2.35;;;8.80;99.40;;;;;;5051861;28;20105;-63
2021/09/30 05:33:33;;;;;;;7.25;3.00;;;8.80;99.40;;;;;;5038954;28;20108;-63
2021/09/30 05:35:58;;;;;;;6.65;2.63;;;8.80;99.40;;;;;;5053581;28;20052;-64
2021/09/30 05:38:24;;;;;;;7.18;2.70;;;8.80;99.40;;;;;;5040338;28;20046;-63
2021/09/30 05:40:50;;;;;;;6.95;3.20;;;8.80;99.40;;;;;;5052762;28;20040;-63
2021/09/30 05:43:36;;;;;;;6.63;2.50;;;8.80;99.40;;;;;;5043823;28;20098;-64
2021/09/30 05:46:03;;;;;;;6.35;2.05;;;8.80;99.40;;;;;;5048876;28;20264;-63
2021/09/30 05:48:30;;;;;;;6.22;2.35;;;8.80;99.40;;;;;;5046125;28;20055;-63
2021/09/30 05:50:56;;;;;;;8.75;2.45;;;8.80;99.40;;;;;;5045821;28;20402;-63
2021/09/30 05:53:22;;;;;;;7.57;2.42;;;8.70;99.30;;;;;;5052912;28;20029;-63
2021/09/30 05:55:48;;;;;;;6.07;2.65;;;8.70;99.30;;;;;;5048583;28;20500;-63
2021/09/30 05:58:14;;;;;;;7.65;2.33;;;8.80;99.40;;;;;;5046598;28;20516;-64
2021/09/30 06:16:45;;;;;;;8.20;2.63;;;8.80;99.40;;;;;;5048542;28;20025;-63
2021/09/30 06:19:12;;;;;;;8.77;2.20;;;8.80;99.30;;;;;;5039354;28;20169;-63
2021/09/30 06:21:37;;;;;;;6.15;2.35;;;8.90;99.30;;;;;;5036184;28;20036;-64
2021/09/30 06:24:03;;;;;;;5.78;2.53;;;8.90;99.30;;;;;;5040432;28;20474;-64
2021/09/30 06:26:29;;;;;;;4.95;1.95;;;8.90;99.20;;;;;;5042497;28;20519;-63
2021/09/30 06:28:54;;;;;;;8.38;2.65;;;8.90;99.20;;;;;;5036770;28;20108;-63
2021/09/30 06:31:20;;;;;;;5.65;2.15;;;9.00;99.20;;;;;;5033486;28;20518;-63
2021/09/30 06:33:45;;;;;;;6.82;1.70;;;9.00;99.20;;;;;;5048422;28;20025;-63
2021/09/30 06:36:11;;;;;;;7.15;2.10;;;9.00;99.10;;;;;;5042871;28;20443;-64
2021/09/30 06:38:36;;;;;;;5.72;2.05;;;9.10;99.10;;;;;;5046551;28;20086;-63
2021/09/30 06:41:02;;;;;;;7.88;1.83;;;9.10;99.00;;;;;;5052532;28;20052;-64
2021/09/30 06:43:27;;;;;;;4.93;2.10;;;9.10;99.00;;;;;;5051720;28;20515;-63
2021/09/30 06:45:53;;;;;;;4.03;1.52;;;9.20;98.90;;;;;;5036935;28;20103;-63
2021/09/30 06:48:19;;;;;;;5.93;1.90;;;9.20;98.90;;;;;;5067889;28;20024;-64
2021/09/30 06:50:46;;;;;;;6.50;1.77;;;9.20;98.90;;;;;;5065813;28;20033;-64
2021/09/30 06:53:12;;;;;;;6.78;2.83;;;9.20;98.70;;;;;;5049507;28;20020;-64
2021/09/30 06:55:42;;;;;;;6.10;2.28;;;9.30;98.70;;;;;;5047425;28;20024;-64
2021/09/30 06:58:08;;;;;;;3.70;2.35;;;9.30;98.60;;;;;;5052188;28;20506;-64
2021/09/30 07:00:34;;;;;;;9.65;2.63;;;9.40;98.60;;;;;;5047927;28;20071;-64
2021/09/30 07:02:59;;;;;;;6.45;1.85;;;9.40;98.60;;;;;;5035933;28;20028;-64
2021/09/30 07:05:25;;;;;;;7.47;1.67;;;9.40;98.50;;;;;;5022920;28;20347;-64
2021/09/30 07:07:50;;;;;;;3.38;1.63;;;9.50;98.60;;;;;;5028665;28;20540;-64
2021/09/30 07:10:16;;;;;;;4.82;1.55;;;9.60;98.50;;;;;;5048869;28;20021;-64
2021/09/30 07:12:41;;;;;;;6.97;2.17;;;9.60;98.50;;;;;;5050622;28;20029;-64
2021/09/30 07:15:08;;;;;;;5.30;2.20;;;9.70;98.50;;;;;;5051955;28;20033;-63
2021/09/30 07:17:33;;;;;;;7.53;2.63;;;9.70;98.40;;;;;;5052276;28;20021;-64
2021/09/30 07:19:59;;;;;;;9.52;1.90;;;9.80;98.40;;;;;;5050355;28;20029;-64
2021/09/30 07:22:25;;;;;;;6.00;1.45;;;9.90;98.30;;;;;;5026754;28;20401;-63
2021/09/30 07:24:51;;;;;;;4.95;1.52;;;10.00;98.20;;;;;;5048446;28;20469;-63
2021/09/30 07:27:17;;;;;;;7.20;2.03;;;10.10;98.40;;;;;;5048538;28;20069;-63
2021/09/30 07:29:43;;;;;;;8.23;2.55;;;10.20;98.00;;;;;;5053500;28;20044;-63
2021/09/30 07:32:09;;;;;;;6.95;2.00;;;10.20;97.70;;;;;;5054068;28;20029;-63
2021/09/30 07:34:35;;;;;;;4.30;1.40;;;10.30;97.60;;;;;;5047813;28;20040;-63
2021/09/30 07:37:01;;;;;;;2.80;1.40;;;10.30;97.50;;;;;;5035437;28;20030;-63
2021/09/30 07:39:28;;;;;;;9.50;2.22;;;10.40;97.40;;;;;;5049610;28;20400;-63
2021/09/30 07:41:53;;;;;;;3.38;1.48;;;10.40;97.30;;;;;;5047331;28;20112;-63
2021/09/30 07:44:20;;;;;;;4.00;1.30;;;10.50;97.30;;;;;;5048499;28;20588;-63
2021/09/30 07:46:47;;;;;;;4.50;1.73;;;10.60;97.20;;;;;;5045173;28;20473;-63
2021/09/30 07:49:13;;;;;;;4.25;1.58;;;10.60;97.10;;;;;;5052178;28;20060;-64
2021/09/30 07:51:39;;;;;;;8.35;1.58;;;10.80;97.00;;;;;;5035667;28;20049;-63
2021/09/30 07:54:06;;;;;;;4.80;1.60;;;10.80;96.80;;;;;;5049805;28;20511;-64
2021/09/30 07:56:32;;;;;;;7.00;1.63;;;10.90;96.70;;;;;;5053658;28;20039;-64
2021/09/30 07:58:59;;;;;;;5.20;1.45;;;11.00;96.60;;;;;;5050712;28;20078;-63
2021/09/30 08:01:24;;;;;;;4.13;1.42;;;11.10;96.40;;;;;;5053868;28;20504;-63
2021/09/30 08:03:50;;;;;;;6.55;1.88;;;11.10;96.40;;;;;;5054449;28;20036;-64
2021/09/30 08:06:16;;;;;;;6.97;1.65;;;11.20;96.30;;;;;;5055473;28;20467;-63
2021/09/30 08:08:42;;;;;;;3.20;1.33;;;11.20;96.10;;;;;;5049355;28;20040;-64
2021/09/30 08:11:08;;;;;;;4.03;2.05;;;11.20;96.00;;;;;;5054738;28;20021;-63
2021/09/30 08:13:33;;;;;;;5.18;1.42;;;11.20;95.80;;;;;;5054427;28;20024;-63
2021/09/30 08:16:00;;;;;;;6.40;2.22;;;11.20;95.60;;;;;;5048925;28;20044;-63
2021/09/30 08:18:26;;;;;;;6.07;1.40;;;11.20;95.60;;;;;;5052721;28;20024;-64
2021/09/30 08:20:53;;;;;;;4.82;1.80;;;11.30;95.60;;;;;;5048389;28;20053;-64
2021/09/30 08:23:20;;;;;;;4.57;1.67;;;11.30;95.60;;;;;;5050949;28;20060;-63
2021/09/30 08:25:46;;;;;;;7.20;1.52;;;11.40;95.50;;;;;;5048656;28;20021;-63
2021/09/30 08:28:12;;;;;;;6.40;1.40;;;11.50;95.40;;;;;;5047594;28;20025;-64
2021/09/30 08:30:40;;;;;;;5.05;1.77;;;11.60;95.30;;;;;;5052682;28;20111;-63
2021/09/30 08:33:06;;;;;;;5.97;1.55;;;11.60;95.10;;;;;;5054301;28;20036;-63
2021/09/30 08:35:32;;;;;;;6.82;1.55;;;11.60;95.00;;;;;;5050886;28;20048;-63
2021/09/30 08:37:57;;;;;;;5.50;1.17;;;11.80;95.00;;;;;;5044327;28;20075;-63
2021/09/30 08:40:23;;;;;;;3.63;1.33;;;11.80;94.80;;;;;;5054281;28;20068;-63
2021/09/30 08:42:48;;;;;;;4.03;1.48;;;11.90;94.70;;;;;;5049381;28;20493;-64
2021/09/30 08:45:20;;;;;;;7.13;1.70;;;12.10;94.50;;;;;;5048081;28;20082;-63
2021/09/30 08:47:53;;;;;;;4.13;1.30;;;12.20;94.40;;;;;;5054169;28;20021;-63
2021/09/30 08:50:19;;;;;;;8.68;1.50;;;12.30;94.30;;;;;;5067816;28;20028;-64
2021/09/30 08:52:44;;;;;;;3.75;1.23;;;12.40;94.10;;;;;;5054089;28;20029;-63
2021/09/30 08:55:10;;;;;;;4.30;1.60;;;12.40;93.90;;;;;;5051136;28;20040;-63
2021/09/30 08:57:36;;;;;;;6.18;1.38;;;12.40;93.80;;;;;;5048412;28;20022;-63
2021/09/30 09:00:06;;;;;;;6.20;1.70;;;12.40;93.90;;;;;;5045602;28;20043;-63
2021/09/30 09:02:40;;;;;;;6.18;1.60;;;12.50;93.50;;;;;;5052231;28;20029;-63
2021/09/30 09:05:06;;;;;;;7.53;1.80;;;12.50;93.30;;;;;;5054118;28;20074;-63
2021/09/30 09:07:32;;;;;;;4.28;1.55;;;12.60;93.10;;;;;;5050814;28;20484;-63
2021/09/30 09:09:59;;;;;;;4.63;1.40;;;12.70;93.10;;;;;;5046148;28;20032;-64
2021/09/30 09:12:26;;;;;;;5.18;1.45;;;12.80;92.90;;;;;;5053277;28;20017;-64
2021/09/30 09:14:52;;;;;;;5.47;1.42;;;12.90;92.80;;;;;;5053568;28;20491;-63
2021/09/30 09:17:18;;;;;;;6.28;1.33;;;13.10;92.40;;;;;;5032881;28;20088;-63
2021/09/30 09:19:47;;;;;;;8.65;1.13;;;13.20;92.10;;;;;;5050598;28;20044;-64
2021/09/30 09:22:15;;;;;;;5.25;1.42;;;13.40;91.90;;;;;;5053858;28;20079;-63
2021/09/30 09:25:03;;;;;;;7.35;1.75;;;13.50;91.70;;;;;;5053099;28;20024;-63
2021/09/30 09:27:54;;;;;;;6.15;0.95;;;13.70;91.40;;;;;;5039226;28;20595;-64
2021/09/30 09:30:33;;;;;;;4.35;1.17;;;14.00;91.40;;;;;;5053280;28;20510;-64
2021/09/30 09:33:21;;;;;;;3.90;1.10;;;14.20;91.10;;;;;;5042120;28;20071;-64
2021/09/30 09:35:58;;;;;;;7.47;1.55;;;14.30;90.50;;;;;;5052571;28;20070;-64
2021/09/30 09:38:49;;;;;;;8.52;1.20;;;14.30;90.00;;;;;;5053566;28;20021;-64
2021/09/30 09:41:23;;;;;;;6.00;1.27;;;14.50;89.00;;;;;;5037290;28;20086;-64
2021/09/30 09:43:51;;;;;;;7.80;1.88;;;14.60;88.50;;;;;;5036904;28;20528;-64
2021/09/30 09:46:23;;;;;;;5.93;1.75;;;14.70;88.30;;;;;;5041314;28;20033;-64
2021/09/30 09:49:08;;;;;;;6.10;0.95;;;14.80;87.70;;;;;;5052623;28;20052;-63
2021/09/30 09:51:52;;;;;;;3.83;1.00;;;14.90;85.70;;;;;;5043284;28;20080;-64
2021/09/30 09:54:21;;;;;;;8.07;1.48;;;15.00;84.90;;;;;;5051022;28;20021;-64
2021/09/30 09:56:48;;;;;;;5.15;1.02;;;15.00;84.90;;;;;;5052994;28;20049;-64
2021/09/30 09:59:27;;;;;;;7.13;1.05;;;15.20;83.90;;;;;;5031176;28;20554;-64
2021/09/30 10:01:53;;;;;;;6.07;1.25;;;15.30;83.40;;;;;;5032215;28;20041;-64
2021/09/30 10:04:19;;;;;;;4.68;1.08;;;15.30;82.50;;;;;;5048449;28;20037;-64
2021/09/30 10:06:45;;;;;;;4.53;1.20;;;15.30;82.60;;;;;;5033095;28;20014;-64
2021/09/30 10:09:14;;;;;;;6.60;1.58;;;15.30;82.80;;;;;;5047063;28;20032;-64
2021/09/30 10:11:40;;;;;;;5.10;1.00;;;15.30;82.50;;;;;;5028301;28;20047;-64
2021/09/30 10:14:07;;;;;;;4.00;1.10;;;15.30;82.60;;;;;;5026034;28;20457;-64
2021/09/30 10:16:34;;;;;;;5.95;1.15;;;15.40;82.90;;;;;;5025464;28;20029;-64
2021/09/30 10:19:03;;;;;;;4.97;0.95;;;15.60;81.90;;;;;;5039253;28;20044;-63
2021/09/30 10:21:30;;;;;;;7.55;1.48;;;15.50;79.60;;;;;;5050968;28;20021;-64
2021/09/30 10:23:59;;;;;;;5.03;1.15;;;15.50;79.90;;;;;;5052467;28;20017;-64
2021/09/30 10:26:51;;;;;;;6.80;1.40;;;15.50;79.60;;;;;;5050452;28;20022;-64
2021/09/30 10:29:38;;;;;;;4.57;1.13;;;15.40;80.00;;;;;;5045351;28;20029;-64
2021/09/30 10:32:06;;;;;;;4.05;0.80;;;15.40;80.10;;;;;;5049236;28;20028;-64
2021/09/30 10:34:35;;;;;;;5.40;0.90;;;15.50;80.30;;;;;;5032444;28;20485;-64
2021/09/30 10:37:22;;;;;;;4.15;0.85;;;15.70;79.30;;;;;;5032775;28;20116;-64
2021/09/30 10:40:16;;;;;;;4.95;0.75;;;15.80;77.00;;;;;;5044981;28;20082;-63
2021/09/30 10:42:42;;;;;;;3.05;0.80;;;15.90;76.50;;;;;;5048256;28;20037;-64
2021/09/30 10:45:13;;;;;;;5.63;0.90;;;16.00;76.30;;;;;;5042693;28;20048;-64
2021/09/30 10:47:39;;;;;;;5.75;0.90;;;16.00;74.70;;;;;;5046094;28;20029;-64
2021/09/30 10:50:05;;;;;;;6.10;0.80;;;16.00;73.80;;;;;;5031778;28;20080;-63
2021/09/30 10:52:33;;;;;;;3.75;0.70;;;16.10;72.90;;;;;;5034663;28;20036;-64
2021/09/30 10:55:06;;;;;;;3.90;0.63;;;16.70;72.60;;;;;;5044009;28;20068;-63
2021/09/30 10:57:42;;;;;;;2.63;0.68;;;17.10;72.70;;;;;;5045465;28;20033;-64
2021/09/30 11:00:33;;;;;;;2.70;0.80;;;17.40;71.00;;;;;;5032345;28;20018;-64
2021/09/30 11:03:02;;;;;;;4.75;0.82;;;17.30;69.70;;;;;;5047830;28;20441;-64
2021/09/30 11:05:30;;;;;;;4.68;0.90;;;17.50;69.90;;;;;;5046965;28;20056;-64
2021/09/30 11:08:25;;;;;;;4.60;1.10;;;17.80;70.30;;;;;;5051366;28;20406;-64
2021/09/30 11:11:12;;;;;;;6.78;0.90;;;18.20;68.80;;;;;;5045250;28;20023;-64
2021/09/30 11:13:44;;;;;;;3.30;0.60;;;18.20;67.20;;;;;;5038805;28;20021;-63
2021/09/30 11:16:21;;;;;;;4.22;0.95;;;18.10;67.30;;;;;;5037095;28;20421;-64
2021/09/30 11:18:50;;;;;;;3.33;0.80;;;17.90;67.20;;;;;;5033917;28;20486;-64
2021/09/30 11:21:28;;;;;;;5.57;0.93;;;17.70;67.30;;;;;;5047746;28;20024;-64
2021/09/30 11:23:54;;;;;;;2.17;0.60;;;17.60;67.20;;;;;;5050897;28;20106;-64
2021/09/30 11:26:20;;;;;;;3.08;1.10;;;17.40;66.90;;;;;;5043207;28;20119;-64
2021/09/30 11:28:46;;;;;;;4.18;0.68;;;17.30;66.90;;;;;;5045059;28;20512;-64
2021/09/30 11:31:24;;;;;;;5.38;0.93;;;17.30;66.40;;;;;;5046270;28;20722;-64
2021/09/30 11:33:51;;;;;;;5.05;0.90;;;17.70;66.30;;;;;;5049454;28;20121;-64
2021/09/30 11:36:17;;;;;;;4.70;0.70;;;18.60;65.70;;;;;;5046181;28;20029;-64
2021/09/30 11:38:43;;;;;;;4.03;1.40;;;19.10;64.50;;;;;;5044589;28;20036;-64
2021/09/30 11:41:09;;;;;;;4.60;0.80;;;18.90;64.10;;;;;;5042199;28;20048;-64
2021/09/30 11:43:35;;;;;;;4.78;1.05;;;18.80;63.60;;;;;;5048451;28;20401;-64
2021/09/30 11:46:22;;;;;;;2.63;0.50;;;18.50;62.80;;;;;;5044091;28;20041;-63
2021/09/30 11:48:58;;;;;;;3.10;1.25;;;18.20;63.60;;;;;;5050575;28;20499;-64
2021/09/30 11:51:38;;;;;;;5.82;0.80;;;17.90;63.80;;;;;;5049338;28;20021;-63
2021/09/30 11:54:04;;;;;;;4.47;0.80;;;17.50;63.90;;;;;;5048068;28;20087;-64
2021/09/30 11:56:38;;;;;;;3.00;0.70;;;17.30;65.00;;;;;;5048221;28;20566;-64
2021/09/30 11:59:06;;;;;;;4.95;0.90;;;17.20;65.60;;;;;;5049938;28;20110;-63
2021/09/30 12:01:46;;;;;;;6.03;0.85;;;17.10;65.80;;;;;;5050709;28;20381;-64
2021/09/30 12:04:39;;;;;;;3.55;0.68;;;17.00;65.10;;;;;;5051682;28;20032;-64
2021/09/30 12:07:13;;;;;;;4.38;0.90;;;16.70;66.70;;;;;;5053372;28;20024;-64
2021/09/30 12:09:38;;;;;;;3.63;0.60;;;16.50;66.80;;;;;;5048876;28;20017;-64
2021/09/30 12:12:04;;;;;;;3.17;0.60;;;16.30;67.50;;;;;;5054156;28;20028;-64
2021/09/30 12:14:42;;;;;;;5.90;1.95;;;16.20;68.00;;;;;;5054832;28;20017;-64
2021/09/30 12:17:12;;;;;;;4.65;0.57;;;16.20;67.90;;;;;;5044215;28;20033;-64
2021/09/30 12:19:39;;;;;;;4.00;1.40;;;16.10;68.00;;;;;;5052104;28;20040;-64
2021/09/30 12:22:15;;;;;;;4.68;0.73;;;16.10;68.80;;;;;;5042480;28;20092;-64
2021/09/30 12:24:49;;;;;;;4.05;0.57;;;16.10;68.90;;;;;;5036107;28;20097;-64
2021/09/30 12:27:15;;;;;;;3.80;0.60;;;16.10;69.50;;;;;;5024252;28;20036;-64
2021/09/30 12:29:46;;;;;;;3.38;0.60;;;16.20;70.00;;;;;;5025408;28;20100;-64
2021/09/30 12:32:15;;;;;;;4.82;0.80;;;16.30;70.30;;;;;;5050257;28;20029;-64
2021/09/30 12:34:52;;;;;;;3.90;0.90;;;16.30;69.40;;;;;;5053505;28;20020;-64
2021/09/30 12:37:25;;;;;;;3.42;0.70;;;16.30;69.30;;;;;;5053734;28;20036;-64
2021/09/30 12:40:04;;;;;;;2.83;0.60;;;16.20;69.50;;;;;;5053562;28;20017;-64
2021/09/30 12:42:31;;;;;;;3.67;0.50;;;16.20;70.20;;;;;;5052180;28;20082;-64
2021/09/30 12:44:57;;;;;;;3.03;0.70;;;16.20;70.30;;;;;;5048204;28;20049;-64
2021/09/30 12:47:38;;;;;;;6.07;1.20;;;16.20;70.10;;;;;;5045375;28;20045;-64
2021/09/30 12:50:09;;;;;;;3.65;0.80;;;16.10;70.30;;;;;;5049848;28;20020;-64
2021/09/30 12:52:37;;;;;;;5.28;0.80;;;15.90;71.50;;;;;;5045386;28;20465;-63
2021/09/30 12:55:23;;;;;;;4.72;0.80;;;15.70;71.80;;;;;;5049193;28;20024;-64
2021/09/30 12:57:49;;;;;;;3.53;1.00;;;15.60;72.60;;;;;;5053364;28;20029;-64
2021/09/30 13:00:17;;;;;;;5.47;0.80;;;15.70;73.20;;;;;;5050744;28;20096;-64
2021/09/30 13:02:47;;;;;;;3.17;0.60;;;15.70;73.20;;;;;;5052663;28;20043;-64
2021/09/30 13:05:14;;;;;;;5.20;0.68;;;15.70;73.10;;;;;;5052036;28;20021;-64
2021/09/30 13:07:57;;;;;;;5.72;0.85;;;15.60;72.30;;;;;;5050131;28;20036;-64
2021/09/30 13:10:34;;;;;;;3.90;0.80;;;15.60;73.00;;;;;;5049401;28;20021;-63
2021/09/30 13:13:12;;;;;;;3.75;0.80;;;15.60;73.20;;;;;;5049726;28;20112;-64
2021/09/30 13:15:40;;;;;;;4.15;0.73;;;15.60;73.20;;;;;;5050176;28;20059;-63
2021/09/30 13:18:09;;;;;;;4.93;0.70;;;15.60;73.30;;;;;;5050547;28;20017;-64
2021/09/30 13:20:41;;;;;;;5.37;0.90;;;15.60;73.40;;;;;;5048027;28;20028;-64
2021/09/30 13:23:07;;;;;;;5.10;0.70;;;15.70;73.60;;;;;;5034035;28;20025;-64
2021/09/30 13:25:33;;;;;;;3.70;0.93;;;15.70;74.00;;;;;;5040146;28;20040;-63
2021/09/30 13:27:59;;;;;;;8.00;1.40;;;15.70;73.50;;;;;;5051656;28;20017;-64
2021/09/30 13:30:28;;;;;;;6.63;1.35;;;15.70;73.60;;;;;;5052456;28;20133;-64
2021/09/30 13:32:57;;;;;;;5.53;0.95;;;15.70;73.60;;;;;;5052629;28;20082;-64
2021/09/30 13:35:24;;;;;;;5.47;0.90;;;15.70;74.00;;;;;;5051537;28;20028;-64
2021/09/30 13:37:51;;;;;;;2.90;0.90;;;15.70;74.60;;;;;;5047211;28;20016;-64
2021/09/30 13:40:17;;;;;;;5.28;0.90;;;15.60;74.50;;;;;;5053441;28;20489;-63
2021/09/30 13:42:43;;;;;;;5.47;1.00;;;15.60;74.60;;;;;;5048571;28;20077;-63
2021/09/30 13:45:11;;;;;;;7.05;1.00;;;15.60;75.40;;;;;;5042266;28;20473;-64
2021/09/30 13:47:38;;;;;;;9.05;1.90;;;15.50;75.00;;;;;;5043039;28;20024;-64
2021/09/30 13:50:05;;;;;;;7.40;1.23;;;15.40;75.50;;;;;;5048935;28;20056;-64
2021/09/30 13:52:31;;;;;;;7.90;1.10;;;15.30;75.50;;;;;;5041913;28;20021;-64
2021/09/30 13:54:57;;;;;;;8.02;1.25;;;15.30;75.20;;;;;;5043621;28;20086;-64
2021/09/30 13:57:22;;;;;;;10.00;1.80;;;15.30;75.90;;;;;;5047962;28;20028;-64
2021/09/30 13:59:47;;;;;;;9.98;1.95;;;15.30;74.90;;;;;;5045599;28;20009;-64
2021/09/30 14:02:13;;;;;;;5.45;1.60;;;15.20;74.70;;;;;;5043689;28;20354;-64
2021/09/30 14:04:39;;;;;;;7.43;1.73;;;15.20;75.50;;;;;;5045019;28;20021;-64
2021/09/30 14:07:07;;;;;;;5.55;1.10;;;15.20;76.30;;;;;;5051032;28;20477;-64
2021/09/30 14:09:33;;;;;;;7.45;1.70;;;15.20;76.20;;;;;;5052012;28;20064;-64
2021/09/30 14:12:00;;;;;;;5.78;1.85;;;15.20;76.60;;;;;;5052437;28;20473;-64
2021/09/30 14:14:26;;;;;;;4.82;1.50;;;15.20;77.30;;;;;;5048340;28;20492;-64
2021/09/30 14:16:51;;;;;;;5.78;1.88;;;15.10;76.80;;;;;;5038511;28;20040;-64
2021/09/30 14:19:18;;;;;;;5.90;2.15;;;15.10;76.70;;;;;;5068737;28;20522;-64
2021/09/30 14:21:44;;;;;;;6.20;1.88;;;15.00;76.70;;;;;;5054603;28;20037;-64
2021/09/30 14:24:10;;;;;;;5.10;1.38;;;15.00;77.70;;;;;;5049037;28;20439;-64
2021/09/30 14:26:36;;;;;;;4.38;1.15;;;15.00;76.90;;;;;;5052092;28;20025;-64
2021/09/30 14:29:01;;;;;;;7.25;1.70;;;15.00;77.30;;;;;;5036341;28;20053;-64
2021/09/30 14:31:27;;;;;;;6.30;1.25;;;15.00;77.60;;;;;;5050916;28;20051;-64
2021/09/30 14:33:52;;;;;;;3.05;1.17;;;15.00;77.60;;;;;;5048459;28;20033;-64
2021/09/30 14:36:18;;;;;;;3.53;1.30;;;15.10;78.30;;;;;;5045529;28;20059;-65
2021/09/30 14:38:43;;;;;;;5.72;1.27;;;15.10;78.20;;;;;;5051061;28;20025;-64
2021/09/30 14:41:09;;;;;;;6.22;1.30;;;15.10;77.90;;;;;;5046995;28;20109;-64
2021/09/30 14:43:38;;;;;;;5.30;1.10;;;15.10;78.30;;;;;;5044012;28;20037;-64
2021/09/30 14:46:05;;;;;;;5.40;1.00;;;15.10;77.30;;;;;;5043181;28;20055;-64
2021/09/30 14:48:32;;;;;;;6.60;1.02;;;14.90;77.60;;;;;;5045777;28;20366;-64
2021/09/30 14:50:58;;;;;;;3.22;0.65;;;14.90;78.00;;;;;;5051793;28;20017;-64
2021/09/30 14:53:24;;;;;;;5.55;1.27;;;15.00;78.30;;;;;;5048212;28;20370;-64
2021/09/30 14:55:50;;;;;;;6.50;1.25;;;15.00;78.60;;;;;;5049669;28;20539;-64
2021/09/30 14:58:16;;;;;;;5.40;1.00;;;14.90;78.20;;;;;;5036584;28;20032;-64
2021/09/30 15:00:42;;;;;;;3.58;1.10;;;14.80;78.30;;;;;;5052254;28;20017;-64
2021/09/30 15:03:07;;;;;;;7.05;0.88;;;14.90;78.60;;;;;;5036451;28;20083;-64
2021/09/30 15:05:36;;;;;;;4.30;1.05;;;14.90;78.70;;;;;;5052201;28;20067;-64
2021/09/30 15:08:02;;;;;;;7.10;1.25;;;14.90;79.00;;;;;;5051712;28;20477;-64
2021/09/30 15:10:28;;;;;;;2.72;0.98;;;14.80;79.50;;;;;;5043016;28;20033;-64
2021/09/30 15:12:55;;;;;;;8.15;1.17;;;14.80;79.60;;;;;;5044957;28;20017;-64
2021/09/30 15:15:21;;;;;;;5.18;1.25;;;14.80;79.60;;;;;;5046824;28;20040;-64
2021/09/30 15:23:12;;;;;;;6.35;1.10;;;14.60;79.50;;;;;;5052064;28;20021;-64
2021/09/30 15:25:43;;;;;;;8.10;1.48;;;14.60;80.00;;;;;;5037609;28;20121;-64
2021/09/30 15:28:11;;;;;;;4.57;1.00;;;14.60;79.80;;;;;;5051979;28;20465;-64
2021/09/30 15:30:40;;;;;;;5.50;1.10;;;14.60;80.30;;;;;;5050852;28;20025;-64
2021/09/30 15:33:06;;;;;;;5.55;1.02;;;14.50;79.90;;;;;;5052106;28;20067;-64
2021/09/30 15:35:32;;;;;;;4.60;1.08;;;14.50;80.30;;;;;;5045925;28;20021;-64
2021/09/30 15:38:00;;;;;;;6.68;1.10;;;14.50;80.50;;;;;;5047967;28;20032;-64
2021/09/30 15:40:25;;;;;;;4.60;1.13;;;14.50;80.90;;;;;;5037113;28;20017;-65
2021/09/30 15:42:51;;;;;;;4.88;1.15;;;14.50;80.90;;;;;;5044476;28;20033;-64
2021/09/30 15:45:19;;;;;;;3.92;0.95;;;14.50;81.30;;;;;;5021012;28;20036;-64
2021/09/30 15:47:44;;;;;;;4.47;0.80;;;14.50;82.00;;;;;;5043058;28;20484;-64
2021/09/30 15:50:10;;;;;;;4.15;0.70;;;14.50;82.20;;;;;;5055464;28;20029;-64
2021/09/30 15:52:36;;;;;;;5.00;1.05;;;14.50;82.70;;;;;;5053147;28;20183;-64
2021/09/30 15:55:02;;;;;;;3.08;0.98;;;14.50;82.50;;;;;;5052839;28;20040;-64